sensor_id;sensor_type;location;lat;lon;timestamp;P1;durP1;ratioP1;P2;durP2;ratioP2
4182;SDS011;2105;52.300;9.182;2023-04-25T00:02:07;16.20;;;9.23;;
4182;SDS011;2105;52.300;9.182;2023-04-25T00:04:34;23.17;;;9.83;;
4182;SDS011;2105;52.300;9.182;2023-04-25T00:07:03;27.70;;;9.97;;
4182;SDS011;2105;52.300;9.182;2023-04-25T00:09:33;17.40;;;9.83;;
4182;SDS011;2105;52.300;9.182;2023-04-25T00:12:00;24.67;;;9.57;;
4182;SDS011;2105;52.300;9.182;2023-04-25T00:14:27;19.20;;;9.57;;
4182;SDS011;2105;52.300;9.182;2023-04-25T00:16:54;20.67;;;9.57;;
4182;SDS011;2105;52.300;9.182;2023-04-25T00:19:22;21.93;;;9.57;;
4182;SDS011;2105;52.300;9.182;2023-04-25T00:21:49;21.10;;;9.73;;
4182;SDS011;2105;52.300;9.182;2023-04-25T00:24:16;16.23;;;9.33;;
4182;SDS011;2105;52.300;9.182;2023-04-25T00:26:43;24.47;;;9.30;;
4182;SDS011;2105;52.300;9.182;2023-04-25T00:29:09;16.10;;;8.90;;
4182;SDS011;2105;52.300;9.182;2023-04-25T00:31:36;19.37;;;10.03;;
4182;SDS011;2105;52.300;9.182;2023-04-25T00:34:03;25.73;;;11.37;;
4182;SDS011;2105;52.300;9.182;2023-04-25T00:36:31;24.37;;;10.40;;
4182;SDS011;2105;52.300;9.182;2023-04-25T00:38:58;20.80;;;9.90;;
4182;SDS011;2105;52.300;9.182;2023-04-25T00:41:25;20.27;;;10.30;;
4182;SDS011;2105;52.300;9.182;2023-04-25T00:43:52;15.40;;;10.30;;
4182;SDS011;2105;52.300;9.182;2023-04-25T00:46:20;26.53;;;11.50;;
4182;SDS011;2105;52.300;9.182;2023-04-25T00:48:51;22.43;;;11.00;;
4182;SDS011;2105;52.300;9.182;2023-04-25T00:51:19;18.37;;;10.63;;
4182;SDS011;2105;52.300;9.182;2023-04-25T00:53:48;19.83;;;10.93;;
4182;SDS011;2105;52.300;9.182;2023-04-25T00:56:16;21.57;;;11.20;;
4182;SDS011;2105;52.300;9.182;2023-04-25T00:58:43;19.63;;;10.63;;
4182;SDS011;2105;52.300;9.182;2023-04-25T01:01:10;16.90;;;10.60;;
4182;SDS011;2105;52.300;9.182;2023-04-25T01:03:38;22.07;;;10.60;;
4182;SDS011;2105;52.300;9.182;2023-04-25T01:06:08;18.53;;;10.00;;
4182;SDS011;2105;52.300;9.182;2023-04-25T01:08:35;28.70;;;11.80;;
4182;SDS011;2105;52.300;9.182;2023-04-25T01:11:04;26.53;;;11.37;;
4182;SDS011;2105;52.300;9.182;2023-04-25T01:13:32;21.10;;;10.90;;
4182;SDS011;2105;52.300;9.182;2023-04-25T01:15:59;20.50;;;11.00;;
4182;SDS011;2105;52.300;9.182;2023-04-25T01:18:26;17.00;;;10.83;;
4182;SDS011;2105;52.300;9.182;2023-04-25T01:20:53;29.50;;;11.50;;
4182;SDS011;2105;52.300;9.182;2023-04-25T01:23:22;26.70;;;11.40;;
4182;SDS011;2105;52.300;9.182;2023-04-25T01:25:49;22.97;;;10.17;;
4182;SDS011;2105;52.300;9.182;2023-04-25T01:28:16;16.10;;;10.23;;
4182;SDS011;2105;52.300;9.182;2023-04-25T01:30:43;31.73;;;10.40;;
4182;SDS011;2105;52.300;9.182;2023-04-25T01:33:11;26.20;;;10.27;;
4182;SDS011;2105;52.300;9.182;2023-04-25T01:35:40;19.00;;;11.20;;
4182;SDS011;2105;52.300;9.182;2023-04-25T01:38:08;26.87;;;10.30;;
4182;SDS011;2105;52.300;9.182;2023-04-25T01:40:36;24.00;;;10.40;;
4182;SDS011;2105;52.300;9.182;2023-04-25T01:43:06;20.90;;;11.80;;
4182;SDS011;2105;52.300;9.182;2023-04-25T01:45:37;20.00;;;10.23;;
4182;SDS011;2105;52.300;9.182;2023-04-25T01:48:43;20.97;;;11.30;;
4182;SDS011;2105;52.300;9.182;2023-04-25T02:07:05;23.07;;;9.60;;
4182;SDS011;2105;52.300;9.182;2023-04-25T02:12:21;28.00;;;8.97;;
4182;SDS011;2105;52.300;9.182;2023-04-25T02:14:53;21.97;;;7.83;;
4182;SDS011;2105;52.300;9.182;2023-04-25T02:17:41;18.53;;;7.23;;
4182;SDS011;2105;52.300;9.182;2023-04-25T02:20:10;24.30;;;7.83;;
4182;SDS011;2105;52.300;9.182;2023-04-25T02:25:21;18.17;;;7.10;;
4182;SDS011;2105;52.300;9.182;2023-04-25T02:27:48;23.57;;;7.20;;
4182;SDS011;2105;52.300;9.182;2023-04-25T02:30:20;21.83;;;8.73;;
4182;SDS011;2105;52.300;9.182;2023-04-25T02:32:49;30.57;;;8.13;;
4182;SDS011;2105;52.300;9.182;2023-04-25T02:35:16;28.70;;;8.30;;
4182;SDS011;2105;52.300;9.182;2023-04-25T02:37:43;25.73;;;8.80;;
4182;SDS011;2105;52.300;9.182;2023-04-25T02:40:11;22.77;;;8.80;;
4182;SDS011;2105;52.300;9.182;2023-04-25T02:42:38;19.63;;;9.33;;
4182;SDS011;2105;52.300;9.182;2023-04-25T02:45:10;17.90;;;8.27;;
4182;SDS011;2105;52.300;9.182;2023-04-25T02:47:36;30.07;;;8.93;;
4182;SDS011;2105;52.300;9.182;2023-04-25T02:50:05;23.73;;;8.30;;
4182;SDS011;2105;52.300;9.182;2023-04-25T02:52:36;21.90;;;7.83;;
4182;SDS011;2105;52.300;9.182;2023-04-25T02:55:03;20.03;;;8.47;;
4182;SDS011;2105;52.300;9.182;2023-04-25T02:57:35;28.83;;;9.23;;
4182;SDS011;2105;52.300;9.182;2023-04-25T03:00:04;32.57;;;8.27;;
4182;SDS011;2105;52.300;9.182;2023-04-25T03:02:32;22.80;;;8.90;;
4182;SDS011;2105;52.300;9.182;2023-04-25T03:04:59;20.03;;;8.70;;
4182;SDS011;2105;52.300;9.182;2023-04-25T03:07:26;27.97;;;8.50;;
4182;SDS011;2105;52.300;9.182;2023-04-25T03:09:53;28.13;;;8.67;;
4182;SDS011;2105;52.300;9.182;2023-04-25T03:12:20;18.97;;;8.87;;
4182;SDS011;2105;52.300;9.182;2023-04-25T03:14:51;25.43;;;8.93;;
4182;SDS011;2105;52.300;9.182;2023-04-25T03:17:18;25.93;;;7.70;;
4182;SDS011;2105;52.300;9.182;2023-04-25T03:19:45;18.43;;;8.50;;
4182;SDS011;2105;52.300;9.182;2023-04-25T03:22:11;26.80;;;9.17;;
4182;SDS011;2105;52.300;9.182;2023-04-25T03:24:40;26.50;;;8.73;;
4182;SDS011;2105;52.300;9.182;2023-04-25T03:27:07;36.83;;;8.87;;
4182;SDS011;2105;52.300;9.182;2023-04-25T03:29:34;35.97;;;10.07;;
4182;SDS011;2105;52.300;9.182;2023-04-25T03:32:02;29.30;;;9.20;;
4182;SDS011;2105;52.300;9.182;2023-04-25T03:34:31;26.13;;;8.80;;
4182;SDS011;2105;52.300;9.182;2023-04-25T03:36:58;23.40;;;9.07;;
4182;SDS011;2105;52.300;9.182;2023-04-25T03:39:27;25.80;;;9.03;;
4182;SDS011;2105;52.300;9.182;2023-04-25T03:41:54;22.97;;;9.03;;
4182;SDS011;2105;52.300;9.182;2023-04-25T03:44:21;27.73;;;9.40;;
4182;SDS011;2105;52.300;9.182;2023-04-25T03:46:49;20.23;;;8.37;;
4182;SDS011;2105;52.300;9.182;2023-04-25T03:49:17;29.83;;;9.90;;
4182;SDS011;2105;52.300;9.182;2023-04-25T03:51:44;28.20;;;9.63;;
4182;SDS011;2105;52.300;9.182;2023-04-25T03:54:11;27.43;;;8.87;;
4182;SDS011;2105;52.300;9.182;2023-04-25T03:56:37;29.40;;;9.33;;
4182;SDS011;2105;52.300;9.182;2023-04-25T03:59:04;28.93;;;8.47;;
4182;SDS011;2105;52.300;9.182;2023-04-25T04:01:31;37.57;;;9.83;;
4182;SDS011;2105;52.300;9.182;2023-04-25T04:03:58;34.47;;;10.20;;
4182;SDS011;2105;52.300;9.182;2023-04-25T04:06:33;23.70;;;9.20;;
4182;SDS011;2105;52.300;9.182;2023-04-25T04:09:02;34.93;;;11.13;;
4182;SDS011;2105;52.300;9.182;2023-04-25T04:11:31;27.47;;;9.83;;
4182;SDS011;2105;52.300;9.182;2023-04-25T04:13:58;27.60;;;9.80;;
4182;SDS011;2105;52.300;9.182;2023-04-25T04:16:25;25.37;;;9.80;;
4182;SDS011;2105;52.300;9.182;2023-04-25T04:18:51;26.43;;;10.60;;
4182;SDS011;2105;52.300;9.182;2023-04-25T04:21:18;23.30;;;10.90;;
4182;SDS011;2105;52.300;9.182;2023-04-25T04:23:46;44.67;;;10.60;;
4182;SDS011;2105;52.300;9.182;2023-04-25T04:26:13;28.03;;;9.70;;
4182;SDS011;2105;52.300;9.182;2023-04-25T04:28:41;18.10;;;9.73;;
4182;SDS011;2105;52.300;9.182;2023-04-25T04:31:09;19.37;;;9.33;;
4182;SDS011;2105;52.300;9.182;2023-04-25T04:33:36;30.43;;;10.00;;
4182;SDS011;2105;52.300;9.182;2023-04-25T04:36:06;23.00;;;9.10;;
4182;SDS011;2105;52.300;9.182;2023-04-25T04:38:40;17.70;;;9.30;;
4182;SDS011;2105;52.300;9.182;2023-04-25T04:41:09;25.57;;;10.20;;
4182;SDS011;2105;52.300;9.182;2023-04-25T04:43:36;44.93;;;10.03;;
4182;SDS011;2105;52.300;9.182;2023-04-25T04:46:04;38.60;;;10.47;;
4182;SDS011;2105;52.300;9.182;2023-04-25T04:48:31;31.43;;;10.80;;
4182;SDS011;2105;52.300;9.182;2023-04-25T04:50:59;29.87;;;10.30;;
4182;SDS011;2105;52.300;9.182;2023-04-25T04:53:26;38.30;;;10.23;;
4182;SDS011;2105;52.300;9.182;2023-04-25T04:55:53;21.17;;;9.30;;
4182;SDS011;2105;52.300;9.182;2023-04-25T04:58:22;21.70;;;9.50;;
4182;SDS011;2105;52.300;9.182;2023-04-25T05:00:49;34.13;;;10.07;;
4182;SDS011;2105;52.300;9.182;2023-04-25T05:03:16;28.60;;;10.00;;
4182;SDS011;2105;52.300;9.182;2023-04-25T05:05:43;24.73;;;10.10;;
4182;SDS011;2105;52.300;9.182;2023-04-25T05:08:10;28.60;;;10.10;;
4182;SDS011;2105;52.300;9.182;2023-04-25T05:10:37;21.60;;;9.87;;
4182;SDS011;2105;52.300;9.182;2023-04-25T05:13:04;27.30;;;9.17;;
4182;SDS011;2105;52.300;9.182;2023-04-25T05:15:33;24.87;;;9.40;;
4182;SDS011;2105;52.300;9.182;2023-04-25T05:18:00;30.70;;;9.43;;
4182;SDS011;2105;52.300;9.182;2023-04-25T05:20:27;30.17;;;10.17;;
4182;SDS011;2105;52.300;9.182;2023-04-25T05:22:54;30.43;;;9.90;;
4182;SDS011;2105;52.300;9.182;2023-04-25T05:25:23;26.70;;;9.93;;
4182;SDS011;2105;52.300;9.182;2023-04-25T05:27:49;22.53;;;9.20;;
4182;SDS011;2105;52.300;9.182;2023-04-25T05:30:17;25.27;;;9.50;;
4182;SDS011;2105;52.300;9.182;2023-04-25T05:32:46;21.27;;;9.10;;
4182;SDS011;2105;52.300;9.182;2023-04-25T05:35:13;27.63;;;10.07;;
4182;SDS011;2105;52.300;9.182;2023-04-25T05:37:43;24.07;;;9.87;;
4182;SDS011;2105;52.300;9.182;2023-04-25T05:40:13;25.43;;;9.87;;
4182;SDS011;2105;52.300;9.182;2023-04-25T05:42:43;22.43;;;9.60;;
4182;SDS011;2105;52.300;9.182;2023-04-25T05:45:12;29.67;;;9.60;;
4182;SDS011;2105;52.300;9.182;2023-04-25T05:47:39;31.10;;;9.27;;
4182;SDS011;2105;52.300;9.182;2023-04-25T05:50:08;28.10;;;9.97;;
4182;SDS011;2105;52.300;9.182;2023-04-25T05:52:35;21.50;;;9.27;;
4182;SDS011;2105;52.300;9.182;2023-04-25T05:55:02;35.80;;;9.70;;
4182;SDS011;2105;52.300;9.182;2023-04-25T05:57:29;30.57;;;10.00;;
4182;SDS011;2105;52.300;9.182;2023-04-25T05:59:56;24.83;;;10.03;;
4182;SDS011;2105;52.300;9.182;2023-04-25T06:04:52;22.23;;;9.70;;
4182;SDS011;2105;52.300;9.182;2023-04-25T06:07:20;21.77;;;9.67;;
4182;SDS011;2105;52.300;9.182;2023-04-25T06:09:47;22.57;;;9.70;;
4182;SDS011;2105;52.300;9.182;2023-04-25T06:12:14;24.80;;;10.00;;
4182;SDS011;2105;52.300;9.182;2023-04-25T06:14:40;22.10;;;10.17;;
4182;SDS011;2105;52.300;9.182;2023-04-25T06:17:07;29.87;;;10.90;;
4182;SDS011;2105;52.300;9.182;2023-04-25T06:19:34;22.53;;;10.10;;
4182;SDS011;2105;52.300;9.182;2023-04-25T06:22:02;21.93;;;10.30;;
4182;SDS011;2105;52.300;9.182;2023-04-25T06:24:33;24.50;;;11.03;;
4182;SDS011;2105;52.300;9.182;2023-04-25T06:27:00;26.57;;;11.30;;
4182;SDS011;2105;52.300;9.182;2023-04-25T06:29:27;21.83;;;10.73;;
4182;SDS011;2105;52.300;9.182;2023-04-25T06:31:54;21.93;;;9.93;;
4182;SDS011;2105;52.300;9.182;2023-04-25T06:34:20;24.43;;;10.40;;
4182;SDS011;2105;52.300;9.182;2023-04-25T06:36:47;29.27;;;10.53;;
4182;SDS011;2105;52.300;9.182;2023-04-25T06:39:14;26.43;;;9.93;;
4182;SDS011;2105;52.300;9.182;2023-04-25T06:41:42;20.60;;;10.90;;
4182;SDS011;2105;52.300;9.182;2023-04-25T06:44:09;24.60;;;10.50;;
4182;SDS011;2105;52.300;9.182;2023-04-25T06:46:36;28.80;;;11.03;;
4182;SDS011;2105;52.300;9.182;2023-04-25T06:49:02;22.97;;;10.63;;
4182;SDS011;2105;52.300;9.182;2023-04-25T06:51:29;28.03;;;11.27;;
4182;SDS011;2105;52.300;9.182;2023-04-25T06:53:56;25.30;;;11.70;;
4182;SDS011;2105;52.300;9.182;2023-04-25T06:56:23;18.40;;;10.87;;
4182;SDS011;2105;52.300;9.182;2023-04-25T06:58:51;24.33;;;11.37;;
4182;SDS011;2105;52.300;9.182;2023-04-25T07:01:18;22.27;;;10.97;;
4182;SDS011;2105;52.300;9.182;2023-04-25T07:03:45;18.60;;;11.70;;
4182;SDS011;2105;52.300;9.182;2023-04-25T07:06:12;25.07;;;10.93;;
4182;SDS011;2105;52.300;9.182;2023-04-25T07:08:38;17.70;;;11.27;;
4182;SDS011;2105;52.300;9.182;2023-04-25T07:11:05;22.07;;;10.97;;
4182;SDS011;2105;52.300;9.182;2023-04-25T07:13:32;24.43;;;11.80;;
4182;SDS011;2105;52.300;9.182;2023-04-25T07:16:00;23.87;;;11.70;;
4182;SDS011;2105;52.300;9.182;2023-04-25T07:18:28;23.37;;;11.50;;
4182;SDS011;2105;52.300;9.182;2023-04-25T07:20:55;18.07;;;11.80;;
4182;SDS011;2105;52.300;9.182;2023-04-25T07:23:21;19.23;;;12.70;;
4182;SDS011;2105;52.300;9.182;2023-04-25T07:25:52;22.20;;;12.03;;
4182;SDS011;2105;52.300;9.182;2023-04-25T07:28:18;19.53;;;11.83;;
4182;SDS011;2105;52.300;9.182;2023-04-25T07:30:45;17.67;;;12.57;;
4182;SDS011;2105;52.300;9.182;2023-04-25T07:33:13;19.03;;;11.53;;
4182;SDS011;2105;52.300;9.182;2023-04-25T07:35:40;19.23;;;11.90;;
4182;SDS011;2105;52.300;9.182;2023-04-25T07:38:07;22.43;;;12.40;;
4182;SDS011;2105;52.300;9.182;2023-04-25T07:40:35;16.90;;;13.23;;
4182;SDS011;2105;52.300;9.182;2023-04-25T07:43:02;18.80;;;12.90;;
4182;SDS011;2105;52.300;9.182;2023-04-25T07:45:28;16.40;;;12.33;;
4182;SDS011;2105;52.300;9.182;2023-04-25T07:47:55;19.17;;;13.77;;
4182;SDS011;2105;52.300;9.182;2023-04-25T07:50:23;17.40;;;14.27;;
4182;SDS011;2105;52.300;9.182;2023-04-25T07:52:50;23.90;;;13.80;;
4182;SDS011;2105;52.300;9.182;2023-04-25T07:55:16;25.53;;;14.70;;
4182;SDS011;2105;52.300;9.182;2023-04-25T07:57:43;16.20;;;13.80;;
4182;SDS011;2105;52.300;9.182;2023-04-25T08:00:12;20.93;;;14.07;;
4182;SDS011;2105;52.300;9.182;2023-04-25T08:02:40;25.00;;;13.70;;
4182;SDS011;2105;52.300;9.182;2023-04-25T08:05:07;25.20;;;14.77;;
4182;SDS011;2105;52.300;9.182;2023-04-25T08:07:38;17.33;;;13.93;;
4182;SDS011;2105;52.300;9.182;2023-04-25T08:10:07;17.83;;;13.20;;
4182;SDS011;2105;52.300;9.182;2023-04-25T08:12:34;22.03;;;13.93;;
4182;SDS011;2105;52.300;9.182;2023-04-25T08:15:01;16.27;;;12.90;;
4182;SDS011;2105;52.300;9.182;2023-04-25T08:17:28;22.87;;;14.13;;
4182;SDS011;2105;52.300;9.182;2023-04-25T08:19:54;21.60;;;13.70;;
4182;SDS011;2105;52.300;9.182;2023-04-25T08:22:22;17.07;;;12.73;;
4182;SDS011;2105;52.300;9.182;2023-04-25T08:24:50;22.23;;;14.63;;
4182;SDS011;2105;52.300;9.182;2023-04-25T08:27:17;16.67;;;13.40;;
4182;SDS011;2105;52.300;9.182;2023-04-25T08:29:45;17.70;;;13.40;;
4182;SDS011;2105;52.300;9.182;2023-04-25T08:32:12;20.70;;;12.97;;
4182;SDS011;2105;52.300;9.182;2023-04-25T08:34:39;25.90;;;13.40;;
4182;SDS011;2105;52.300;9.182;2023-04-25T08:37:07;21.57;;;13.37;;
4182;SDS011;2105;52.300;9.182;2023-04-25T08:39:35;23.10;;;14.17;;
4182;SDS011;2105;52.300;9.182;2023-04-25T08:42:05;19.43;;;13.43;;
4182;SDS011;2105;52.300;9.182;2023-04-25T08:44:33;27.10;;;13.77;;
4182;SDS011;2105;52.300;9.182;2023-04-25T08:47:01;17.30;;;13.23;;
4182;SDS011;2105;52.300;9.182;2023-04-25T08:49:30;18.53;;;13.80;;
4182;SDS011;2105;52.300;9.182;2023-04-25T08:51:59;23.27;;;13.83;;
4182;SDS011;2105;52.300;9.182;2023-04-25T08:54:27;18.17;;;13.00;;
4182;SDS011;2105;52.300;9.182;2023-04-25T08:56:55;17.10;;;13.73;;
4182;SDS011;2105;52.300;9.182;2023-04-25T08:59:39;24.60;;;14.17;;
4182;SDS011;2105;52.300;9.182;2023-04-25T09:02:10;17.20;;;13.40;;
4182;SDS011;2105;52.300;9.182;2023-04-25T09:04:39;19.40;;;14.07;;
4182;SDS011;2105;52.300;9.182;2023-04-25T09:07:07;20.97;;;15.20;;
4182;SDS011;2105;52.300;9.182;2023-04-25T09:09:33;23.33;;;14.00;;
4182;SDS011;2105;52.300;9.182;2023-04-25T09:12:00;18.27;;;14.00;;
4182;SDS011;2105;52.300;9.182;2023-04-25T09:14:28;17.33;;;13.50;;
4182;SDS011;2105;52.300;9.182;2023-04-25T09:17:00;18.40;;;13.20;;
4182;SDS011;2105;52.300;9.182;2023-04-25T09:19:30;15.90;;;13.80;;
4182;SDS011;2105;52.300;9.182;2023-04-25T09:22:00;16.67;;;13.57;;
4182;SDS011;2105;52.300;9.182;2023-04-25T09:24:31;19.80;;;14.20;;
4182;SDS011;2105;52.300;9.182;2023-04-25T09:27:00;19.47;;;15.30;;
4182;SDS011;2105;52.300;9.182;2023-04-25T09:29:30;20.93;;;16.73;;
4182;SDS011;2105;52.300;9.182;2023-04-25T09:32:13;23.03;;;16.70;;
4182;SDS011;2105;52.300;9.182;2023-04-25T09:34:42;28.00;;;17.20;;
4182;SDS011;2105;52.300;9.182;2023-04-25T09:37:10;21.53;;;16.77;;
4182;SDS011;2105;52.300;9.182;2023-04-25T09:39:37;20.23;;;17.27;;
4182;SDS011;2105;52.300;9.182;2023-04-25T09:42:04;17.70;;;15.93;;
4182;SDS011;2105;52.300;9.182;2023-04-25T09:44:31;18.00;;;16.20;;
4182;SDS011;2105;52.300;9.182;2023-04-25T09:46:58;19.33;;;15.80;;
4182;SDS011;2105;52.300;9.182;2023-04-25T09:49:27;18.67;;;16.67;;
4182;SDS011;2105;52.300;9.182;2023-04-25T09:51:54;18.40;;;16.60;;
4182;SDS011;2105;52.300;9.182;2023-04-25T09:54:22;19.47;;;16.20;;
4182;SDS011;2105;52.300;9.182;2023-04-25T09:56:49;18.80;;;16.60;;
4182;SDS011;2105;52.300;9.182;2023-04-25T09:59:19;19.30;;;15.90;;
4182;SDS011;2105;52.300;9.182;2023-04-25T10:01:46;17.50;;;15.53;;
4182;SDS011;2105;52.300;9.182;2023-04-25T10:04:16;17.57;;;15.70;;
4182;SDS011;2105;52.300;9.182;2023-04-25T10:06:48;17.33;;;15.53;;
4182;SDS011;2105;52.300;9.182;2023-04-25T10:09:17;21.37;;;15.57;;
4182;SDS011;2105;52.300;9.182;2023-04-25T10:11:47;22.10;;;15.67;;
4182;SDS011;2105;52.300;9.182;2023-04-25T10:14:18;21.73;;;16.33;;
4182;SDS011;2105;52.300;9.182;2023-04-25T10:16:45;17.60;;;15.77;;
4182;SDS011;2105;52.300;9.182;2023-04-25T10:19:14;16.87;;;15.07;;
4182;SDS011;2105;52.300;9.182;2023-04-25T10:21:44;19.13;;;15.43;;
4182;SDS011;2105;52.300;9.182;2023-04-25T10:24:16;19.60;;;15.93;;
4182;SDS011;2105;52.300;9.182;2023-04-25T10:26:43;24.30;;;15.30;;
4182;SDS011;2105;52.300;9.182;2023-04-25T10:29:10;17.10;;;15.30;;
4182;SDS011;2105;52.300;9.182;2023-04-25T10:31:44;19.90;;;16.23;;
4182;SDS011;2105;52.300;9.182;2023-04-25T10:34:11;17.23;;;15.47;;
4182;SDS011;2105;52.300;9.182;2023-04-25T10:36:38;18.60;;;15.47;;
4182;SDS011;2105;52.300;9.182;2023-04-25T10:39:07;17.13;;;15.50;;
4182;SDS011;2105;52.300;9.182;2023-04-25T10:41:45;16.80;;;14.93;;
4182;SDS011;2105;52.300;9.182;2023-04-25T10:44:14;19.77;;;15.47;;
4182;SDS011;2105;52.300;9.182;2023-04-25T10:46:41;16.40;;;14.80;;
4182;SDS011;2105;52.300;9.182;2023-04-25T10:49:10;17.33;;;15.13;;
4182;SDS011;2105;52.300;9.182;2023-04-25T10:51:37;16.13;;;14.63;;
4182;SDS011;2105;52.300;9.182;2023-04-25T10:54:04;19.07;;;14.60;;
4182;SDS011;2105;52.300;9.182;2023-04-25T10:56:33;16.07;;;14.47;;
4182;SDS011;2105;52.300;9.182;2023-04-25T10:59:05;17.13;;;14.87;;
4182;SDS011;2105;52.300;9.182;2023-04-25T11:01:36;18.07;;;15.20;;
4182;SDS011;2105;52.300;9.182;2023-04-25T11:04:05;16.37;;;14.87;;
4182;SDS011;2105;52.300;9.182;2023-04-25T11:06:35;20.53;;;14.80;;
4182;SDS011;2105;52.300;9.182;2023-04-25T11:09:12;16.33;;;14.80;;
4182;SDS011;2105;52.300;9.182;2023-04-25T11:11:41;16.83;;;15.00;;
4182;SDS011;2105;52.300;9.182;2023-04-25T11:14:08;16.50;;;15.00;;
4182;SDS011;2105;52.300;9.182;2023-04-25T11:16:34;16.23;;;14.63;;
4182;SDS011;2105;52.300;9.182;2023-04-25T11:19:01;16.17;;;14.50;;
4182;SDS011;2105;52.300;9.182;2023-04-25T11:21:29;15.73;;;14.33;;
4182;SDS011;2105;52.300;9.182;2023-04-25T11:23:57;16.10;;;14.43;;
4182;SDS011;2105;52.300;9.182;2023-04-25T11:26:25;15.10;;;13.60;;
4182;SDS011;2105;52.300;9.182;2023-04-25T11:28:57;14.83;;;13.37;;
4182;SDS011;2105;52.300;9.182;2023-04-25T11:31:25;15.90;;;14.33;;
4182;SDS011;2105;52.300;9.182;2023-04-25T11:33:52;15.03;;;13.83;;
4182;SDS011;2105;52.300;9.182;2023-04-25T11:36:19;16.10;;;14.60;;
4182;SDS011;2105;52.300;9.182;2023-04-25T11:38:46;17.47;;;14.50;;
4182;SDS011;2105;52.300;9.182;2023-04-25T11:41:13;15.00;;;13.90;;
4182;SDS011;2105;52.300;9.182;2023-04-25T11:43:40;16.30;;;14.93;;
4182;SDS011;2105;52.300;9.182;2023-04-25T11:46:10;16.20;;;14.53;;
4182;SDS011;2105;52.300;9.182;2023-04-25T11:48:37;16.27;;;14.67;;
4182;SDS011;2105;52.300;9.182;2023-04-25T11:51:05;15.70;;;14.40;;
4182;SDS011;2105;52.300;9.182;2023-04-25T11:53:40;16.57;;;15.17;;
4182;SDS011;2105;52.300;9.182;2023-04-25T11:56:09;16.23;;;14.67;;
4182;SDS011;2105;52.300;9.182;2023-04-25T12:01:27;16.43;;;14.93;;
4182;SDS011;2105;52.300;9.182;2023-04-25T12:03:55;16.80;;;15.20;;
4182;SDS011;2105;52.300;9.182;2023-04-25T12:06:25;17.37;;;15.40;;
4182;SDS011;2105;52.300;9.182;2023-04-25T12:09:02;16.70;;;15.10;;
4182;SDS011;2105;52.300;9.182;2023-04-25T12:11:30;16.50;;;15.10;;
4182;SDS011;2105;52.300;9.182;2023-04-25T12:14:01;17.00;;;15.40;;
4182;SDS011;2105;52.300;9.182;2023-04-25T12:16:31;16.60;;;15.20;;
4182;SDS011;2105;52.300;9.182;2023-04-25T12:19:06;16.60;;;15.17;;
4182;SDS011;2105;52.300;9.182;2023-04-25T12:21:33;16.57;;;15.03;;
4182;SDS011;2105;52.300;9.182;2023-04-25T12:24:08;16.47;;;14.90;;
4182;SDS011;2105;52.300;9.182;2023-04-25T12:26:46;16.20;;;14.80;;
4182;SDS011;2105;52.300;9.182;2023-04-25T12:29:17;17.50;;;14.77;;
4182;SDS011;2105;52.300;9.182;2023-04-25T12:31:45;16.23;;;14.83;;
4182;SDS011;2105;52.300;9.182;2023-04-25T12:34:13;16.03;;;14.50;;
4182;SDS011;2105;52.300;9.182;2023-04-25T12:36:39;16.87;;;14.83;;
4182;SDS011;2105;52.300;9.182;2023-04-25T12:39:06;16.47;;;14.93;;
4182;SDS011;2105;52.300;9.182;2023-04-25T12:41:33;15.67;;;14.47;;
4182;SDS011;2105;52.300;9.182;2023-04-25T12:44:00;15.97;;;14.60;;
4182;SDS011;2105;52.300;9.182;2023-04-25T12:46:27;15.00;;;13.80;;
4182;SDS011;2105;52.300;9.182;2023-04-25T12:48:55;14.83;;;13.70;;
4182;SDS011;2105;52.300;9.182;2023-04-25T12:51:22;16.87;;;14.03;;
4182;SDS011;2105;52.300;9.182;2023-04-25T12:53:50;19.80;;;15.00;;
4182;SDS011;2105;52.300;9.182;2023-04-25T12:56:17;15.17;;;13.67;;
4182;SDS011;2105;52.300;9.182;2023-04-25T12:58:44;15.33;;;13.87;;
4182;SDS011;2105;52.300;9.182;2023-04-25T13:01:11;16.60;;;15.10;;
4182;SDS011;2105;52.300;9.182;2023-04-25T13:03:38;16.13;;;14.60;;
4182;SDS011;2105;52.300;9.182;2023-04-25T13:06:07;17.20;;;15.40;;
4182;SDS011;2105;52.300;9.182;2023-04-25T13:08:33;16.77;;;15.00;;
4182;SDS011;2105;52.300;9.182;2023-04-25T13:11:01;16.67;;;14.97;;
4182;SDS011;2105;52.300;9.182;2023-04-25T13:13:28;16.63;;;14.90;;
4182;SDS011;2105;52.300;9.182;2023-04-25T13:15:56;15.33;;;14.10;;
4182;SDS011;2105;52.300;9.182;2023-04-25T13:18:23;18.00;;;14.53;;
4182;SDS011;2105;52.300;9.182;2023-04-25T13:20:52;15.23;;;13.97;;
4182;SDS011;2105;52.300;9.182;2023-04-25T13:23:20;15.93;;;14.43;;
4182;SDS011;2105;52.300;9.182;2023-04-25T13:25:47;16.23;;;14.70;;
4182;SDS011;2105;52.300;9.182;2023-04-25T13:28:14;15.87;;;14.57;;
4182;SDS011;2105;52.300;9.182;2023-04-25T13:30:42;15.63;;;14.43;;
4182;SDS011;2105;52.300;9.182;2023-04-25T13:33:09;15.70;;;14.50;;
4182;SDS011;2105;52.300;9.182;2023-04-25T13:35:36;16.07;;;14.57;;
4182;SDS011;2105;52.300;9.182;2023-04-25T13:38:04;15.83;;;14.33;;
4182;SDS011;2105;52.300;9.182;2023-04-25T13:40:32;19.13;;;15.70;;
4182;SDS011;2105;52.300;9.182;2023-04-25T13:42:59;15.70;;;14.37;;
4182;SDS011;2105;52.300;9.182;2023-04-25T13:45:25;16.73;;;15.23;;
4182;SDS011;2105;52.300;9.182;2023-04-25T13:47:52;15.50;;;14.17;;
4182;SDS011;2105;52.300;9.182;2023-04-25T13:50:19;14.87;;;13.47;;
4182;SDS011;2105;52.300;9.182;2023-04-25T13:52:46;15.60;;;14.03;;
4182;SDS011;2105;52.300;9.182;2023-04-25T13:55:12;15.53;;;14.03;;
4182;SDS011;2105;52.300;9.182;2023-04-25T13:57:41;14.37;;;13.33;;
4182;SDS011;2105;52.300;9.182;2023-04-25T14:00:09;15.00;;;13.60;;
4182;SDS011;2105;52.300;9.182;2023-04-25T14:02:36;15.33;;;13.83;;
4182;SDS011;2105;52.300;9.182;2023-04-25T14:05:03;14.90;;;13.43;;
4182;SDS011;2105;52.300;9.182;2023-04-25T14:07:33;15.03;;;13.73;;
4182;SDS011;2105;52.300;9.182;2023-04-25T14:10:00;16.03;;;14.47;;
4182;SDS011;2105;52.300;9.182;2023-04-25T14:12:27;16.20;;;14.73;;
4182;SDS011;2105;52.300;9.182;2023-04-25T14:14:55;15.67;;;14.13;;
4182;SDS011;2105;52.300;9.182;2023-04-25T14:17:22;15.30;;;13.77;;
4182;SDS011;2105;52.300;9.182;2023-04-25T14:19:49;15.63;;;14.33;;
4182;SDS011;2105;52.300;9.182;2023-04-25T14:22:16;14.20;;;13.20;;
4182;SDS011;2105;52.300;9.182;2023-04-25T14:24:42;15.20;;;13.90;;
4182;SDS011;2105;52.300;9.182;2023-04-25T14:27:09;16.60;;;14.20;;
4182;SDS011;2105;52.300;9.182;2023-04-25T14:29:36;15.23;;;13.83;;
4182;SDS011;2105;52.300;9.182;2023-04-25T14:32:06;15.57;;;14.30;;
4182;SDS011;2105;52.300;9.182;2023-04-25T14:34:32;16.17;;;14.57;;
4182;SDS011;2105;52.300;9.182;2023-04-25T14:36:59;16.07;;;14.70;;
4182;SDS011;2105;52.300;9.182;2023-04-25T14:39:26;15.50;;;14.20;;
4182;SDS011;2105;52.300;9.182;2023-04-25T14:41:53;15.03;;;13.83;;
4182;SDS011;2105;52.300;9.182;2023-04-25T14:44:21;16.10;;;14.40;;
4182;SDS011;2105;52.300;9.182;2023-04-25T14:46:48;19.23;;;13.77;;
4182;SDS011;2105;52.300;9.182;2023-04-25T14:49:18;15.83;;;14.30;;
4182;SDS011;2105;52.300;9.182;2023-04-25T14:51:45;15.73;;;14.20;;
4182;SDS011;2105;52.300;9.182;2023-04-25T14:54:12;15.53;;;13.63;;
4182;SDS011;2105;52.300;9.182;2023-04-25T14:56:39;16.13;;;14.43;;
4182;SDS011;2105;52.300;9.182;2023-04-25T14:59:06;15.03;;;13.80;;
4182;SDS011;2105;52.300;9.182;2023-04-25T15:01:34;15.00;;;13.77;;
4182;SDS011;2105;52.300;9.182;2023-04-25T15:04:01;14.33;;;13.33;;
4182;SDS011;2105;52.300;9.182;2023-04-25T15:06:29;15.50;;;14.13;;
4182;SDS011;2105;52.300;9.182;2023-04-25T15:09:10;15.30;;;14.10;;
4182;SDS011;2105;52.300;9.182;2023-04-25T15:11:38;15.10;;;13.80;;
4182;SDS011;2105;52.300;9.182;2023-04-25T15:14:04;15.47;;;13.90;;
4182;SDS011;2105;52.300;9.182;2023-04-25T15:16:31;15.30;;;14.20;;
4182;SDS011;2105;52.300;9.182;2023-04-25T15:18:58;15.80;;;14.40;;
4182;SDS011;2105;52.300;9.182;2023-04-25T15:21:30;16.13;;;14.70;;
4182;SDS011;2105;52.300;9.182;2023-04-25T15:23:57;18.90;;;14.63;;